<?xml version="1.0" encoding="UTF-8" standalone="no" ?>
<gpx xmlns="http://www.topografix.com/GPX/1/1" xmlns:xsi="http://www.w3.org/2001/XMLSchema-instance" xsi:schemaLocation="http://www.topografix.com/GPX/1/1 http://www.topografix.com/GPX/1/1/gpx.xsd" version="1.1" creator="VisuGPX - https://www.visugpx.com">
  <metadata>
    <name>ISSOU PLACE DE FONTENAY ST PERE</name>
    <desc><![CDATA[FAIT]]></desc>
  </metadata>
  <trk>
    <name><![CDATA[Issou/Place de Fontenay-Saint-Père-16969368]]></name>
    <trkseg>
      <trkpt lat="48.98544" lon="1.79445">
        <ele>61</ele>
        <time>2023-06-30T13:43:38Z</time>
      </trkpt>
      <trkpt lat="48.98647" lon="1.79437">
        <ele>65</ele>
        <time>2023-06-30T13:44:30Z</time>
      </trkpt>
      <trkpt lat="48.98644" lon="1.79235">
        <ele>67</ele>
        <time>2023-06-30T13:45:36Z</time>
      </trkpt>
      <trkpt lat="48.98646" lon="1.79197">
        <ele>67</ele>
        <time>2023-06-30T13:45:48Z</time>
      </trkpt>
      <trkpt lat="48.98649" lon="1.79001">
        <ele>66</ele>
        <time>2023-06-30T13:46:53Z</time>
      </trkpt>
      <trkpt lat="48.98737" lon="1.7901">
        <ele>69</ele>
        <time>2023-06-30T13:47:37Z</time>
      </trkpt>
      <trkpt lat="48.98792" lon="1.7902">
        <ele>71</ele>
        <time>2023-06-30T13:48:05Z</time>
      </trkpt>
      <trkpt lat="48.98815" lon="1.78755">
        <ele>71</ele>
        <time>2023-06-30T13:49:33Z</time>
      </trkpt>
      <trkpt lat="48.98815" lon="1.78728">
        <ele>71</ele>
        <time>2023-06-30T13:49:41Z</time>
      </trkpt>
      <trkpt lat="48.98812" lon="1.78719">
        <ele>71</ele>
        <time>2023-06-30T13:49:45Z</time>
      </trkpt>
      <trkpt lat="48.98812" lon="1.78715">
        <ele>71</ele>
        <time>2023-06-30T13:49:46Z</time>
      </trkpt>
      <trkpt lat="48.98815" lon="1.78706">
        <ele>71</ele>
        <time>2023-06-30T13:49:49Z</time>
      </trkpt>
      <trkpt lat="48.9882" lon="1.78702">
        <ele>71</ele>
        <time>2023-06-30T13:49:52Z</time>
      </trkpt>
      <trkpt lat="48.98831" lon="1.78595">
        <ele>67</ele>
        <time>2023-06-30T13:50:28Z</time>
      </trkpt>
      <trkpt lat="48.98864" lon="1.7824">
        <ele>52</ele>
        <time>2023-06-30T13:52:25Z</time>
      </trkpt>
      <trkpt lat="48.98871" lon="1.78225">
        <ele>52</ele>
        <time>2023-06-30T13:52:31Z</time>
      </trkpt>
      <trkpt lat="48.98956" lon="1.78066">
        <ele>49</ele>
        <time>2023-06-30T13:53:39Z</time>
      </trkpt>
      <trkpt lat="48.98992" lon="1.77963">
        <ele>46</ele>
        <time>2023-06-30T13:54:17Z</time>
      </trkpt>
      <trkpt lat="48.99018" lon="1.77915">
        <ele>47</ele>
        <time>2023-06-30T13:54:38Z</time>
      </trkpt>
      <trkpt lat="48.99089" lon="1.77838">
        <ele>47</ele>
        <time>2023-06-30T13:55:21Z</time>
      </trkpt>
      <trkpt lat="48.99123" lon="1.77788">
        <ele>45</ele>
        <time>2023-06-30T13:55:45Z</time>
      </trkpt>
      <trkpt lat="48.99155" lon="1.77755">
        <ele>44</ele>
        <time>2023-06-30T13:56:04Z</time>
      </trkpt>
      <trkpt lat="48.99187" lon="1.77737">
        <ele>44</ele>
        <time>2023-06-30T13:56:21Z</time>
      </trkpt>
      <trkpt lat="48.99236" lon="1.77717">
        <ele>44</ele>
        <time>2023-06-30T13:56:47Z</time>
      </trkpt>
      <trkpt lat="48.99327" lon="1.77728">
        <ele>45</ele>
        <time>2023-06-30T13:57:32Z</time>
      </trkpt>
      <trkpt lat="48.99351" lon="1.77734">
        <ele>46</ele>
        <time>2023-06-30T13:57:44Z</time>
      </trkpt>
      <trkpt lat="48.99367" lon="1.77734">
        <ele>46</ele>
        <time>2023-06-30T13:57:52Z</time>
      </trkpt>
      <trkpt lat="48.99394" lon="1.77741">
        <ele>46</ele>
        <time>2023-06-30T13:58:06Z</time>
      </trkpt>
      <trkpt lat="48.99455" lon="1.77778">
        <ele>49</ele>
        <time>2023-06-30T13:58:39Z</time>
      </trkpt>
      <trkpt lat="48.99613" lon="1.77897">
        <ele>50</ele>
        <time>2023-06-30T14:00:07Z</time>
      </trkpt>
      <trkpt lat="48.99904" lon="1.78228">
        <ele>55</ele>
        <time>2023-06-30T14:03:09Z</time>
      </trkpt>
      <trkpt lat="48.99929" lon="1.78195">
        <ele>54</ele>
        <time>2023-06-30T14:03:26Z</time>
      </trkpt>
      <trkpt lat="48.99942" lon="1.78173">
        <ele>53</ele>
        <time>2023-06-30T14:03:35Z</time>
      </trkpt>
      <trkpt lat="48.99983" lon="1.78038">
        <ele>53</ele>
        <time>2023-06-30T14:04:24Z</time>
      </trkpt>
      <trkpt lat="49.00006" lon="1.77951">
        <ele>55</ele>
        <time>2023-06-30T14:04:55Z</time>
      </trkpt>
      <trkpt lat="49.00007" lon="1.77941">
        <ele>55</ele>
        <time>2023-06-30T14:04:58Z</time>
      </trkpt>
      <trkpt lat="49.00012" lon="1.7793">
        <ele>55</ele>
        <time>2023-06-30T14:05:03Z</time>
      </trkpt>
      <trkpt lat="49.0007" lon="1.77833">
        <ele>52</ele>
        <time>2023-06-30T14:05:46Z</time>
      </trkpt>
      <trkpt lat="49.00134" lon="1.77744">
        <ele>55</ele>
        <time>2023-06-30T14:06:29Z</time>
      </trkpt>
      <trkpt lat="49.00168" lon="1.77705">
        <ele>55</ele>
        <time>2023-06-30T14:06:50Z</time>
      </trkpt>
      <trkpt lat="49.00252" lon="1.7762">
        <ele>56</ele>
        <time>2023-06-30T14:07:41Z</time>
      </trkpt>
      <trkpt lat="49.00363" lon="1.77508">
        <ele>57</ele>
        <time>2023-06-30T14:08:47Z</time>
      </trkpt>
      <trkpt lat="49.00381" lon="1.77488">
        <ele>57</ele>
        <time>2023-06-30T14:08:59Z</time>
      </trkpt>
      <trkpt lat="49.00393" lon="1.77473">
        <ele>58</ele>
        <time>2023-06-30T14:09:06Z</time>
      </trkpt>
      <trkpt lat="49.00389" lon="1.77467">
        <ele>58</ele>
        <time>2023-06-30T14:09:09Z</time>
      </trkpt>
      <trkpt lat="49.00421" lon="1.77407">
        <ele>59</ele>
        <time>2023-06-30T14:09:34Z</time>
      </trkpt>
      <trkpt lat="49.00455" lon="1.77334">
        <ele>61</ele>
        <time>2023-06-30T14:10:04Z</time>
      </trkpt>
      <trkpt lat="49.00509" lon="1.77203">
        <ele>60</ele>
        <time>2023-06-30T14:10:55Z</time>
      </trkpt>
      <trkpt lat="49.00495" lon="1.77184">
        <ele>60</ele>
        <time>2023-06-30T14:11:04Z</time>
      </trkpt>
      <trkpt lat="49.00551" lon="1.77104">
        <ele>61</ele>
        <time>2023-06-30T14:11:42Z</time>
      </trkpt>
      <trkpt lat="49.0056" lon="1.771">
        <ele>61</ele>
        <time>2023-06-30T14:11:47Z</time>
      </trkpt>
      <trkpt lat="49.00692" lon="1.77124">
        <ele>68</ele>
        <time>2023-06-30T14:12:54Z</time>
      </trkpt>
      <trkpt lat="49.00724" lon="1.77135">
        <ele>70</ele>
        <time>2023-06-30T14:13:10Z</time>
      </trkpt>
      <trkpt lat="49.00772" lon="1.7717">
        <ele>73</ele>
        <time>2023-06-30T14:13:37Z</time>
      </trkpt>
      <trkpt lat="49.00796" lon="1.77197">
        <ele>74</ele>
        <time>2023-06-30T14:13:52Z</time>
      </trkpt>
      <trkpt lat="49.00829" lon="1.77245">
        <ele>77</ele>
        <time>2023-06-30T14:14:14Z</time>
      </trkpt>
      <trkpt lat="49.0085" lon="1.77223">
        <ele>77</ele>
        <time>2023-06-30T14:14:27Z</time>
      </trkpt>
      <trkpt lat="49.00861" lon="1.77223">
        <ele>78</ele>
        <time>2023-06-30T14:14:33Z</time>
      </trkpt>
      <trkpt lat="49.00876" lon="1.77233">
        <ele>79</ele>
        <time>2023-06-30T14:14:41Z</time>
      </trkpt>
      <trkpt lat="49.00892" lon="1.77249">
        <ele>80</ele>
        <time>2023-06-30T14:14:50Z</time>
      </trkpt>
      <trkpt lat="49.00909" lon="1.77256">
        <ele>81</ele>
        <time>2023-06-30T14:14:59Z</time>
      </trkpt>
      <trkpt lat="49.00926" lon="1.77276">
        <ele>81</ele>
        <time>2023-06-30T14:15:10Z</time>
      </trkpt>
      <trkpt lat="49.00977" lon="1.77188">
        <ele>81</ele>
        <time>2023-06-30T14:15:49Z</time>
      </trkpt>
      <trkpt lat="49.00987" lon="1.77175">
        <ele>82</ele>
        <time>2023-06-30T14:15:55Z</time>
      </trkpt>
      <trkpt lat="49.01051" lon="1.77084">
        <ele>79</ele>
        <time>2023-06-30T14:16:39Z</time>
      </trkpt>
      <trkpt lat="49.01081" lon="1.77047">
        <ele>78</ele>
        <time>2023-06-30T14:16:58Z</time>
      </trkpt>
      <trkpt lat="49.01175" lon="1.76803">
        <ele>74</ele>
        <time>2023-06-30T14:18:31Z</time>
      </trkpt>
      <trkpt lat="49.01241" lon="1.76642">
        <ele>75</ele>
        <time>2023-06-30T14:19:33Z</time>
      </trkpt>
      <trkpt lat="49.01257" lon="1.76539">
        <ele>72</ele>
        <time>2023-06-30T14:20:08Z</time>
      </trkpt>
      <trkpt lat="49.01309" lon="1.76455">
        <ele>74</ele>
        <time>2023-06-30T14:20:46Z</time>
      </trkpt>
      <trkpt lat="49.0133" lon="1.76406">
        <ele>73</ele>
        <time>2023-06-30T14:21:05Z</time>
      </trkpt>
      <trkpt lat="49.01355" lon="1.76362">
        <ele>73</ele>
        <time>2023-06-30T14:21:24Z</time>
      </trkpt>
      <trkpt lat="49.01379" lon="1.76356">
        <ele>75</ele>
        <time>2023-06-30T14:21:37Z</time>
      </trkpt>
      <trkpt lat="49.01397" lon="1.76336">
        <ele>76</ele>
        <time>2023-06-30T14:21:48Z</time>
      </trkpt>
      <trkpt lat="49.01411" lon="1.76315">
        <ele>76</ele>
        <time>2023-06-30T14:21:58Z</time>
      </trkpt>
      <trkpt lat="49.01497" lon="1.76253">
        <ele>77</ele>
        <time>2023-06-30T14:22:45Z</time>
      </trkpt>
      <trkpt lat="49.01529" lon="1.76224">
        <ele>76</ele>
        <time>2023-06-30T14:23:04Z</time>
      </trkpt>
      <trkpt lat="49.01557" lon="1.76222">
        <ele>77</ele>
        <time>2023-06-30T14:23:18Z</time>
      </trkpt>
      <trkpt lat="49.0158" lon="1.76225">
        <ele>77</ele>
        <time>2023-06-30T14:23:29Z</time>
      </trkpt>
      <trkpt lat="49.01653" lon="1.76247">
        <ele>79</ele>
        <time>2023-06-30T14:24:07Z</time>
      </trkpt>
      <trkpt lat="49.0168" lon="1.76251">
        <ele>79</ele>
        <time>2023-06-30T14:24:20Z</time>
      </trkpt>
      <trkpt lat="49.01708" lon="1.76265">
        <ele>82</ele>
        <time>2023-06-30T14:24:35Z</time>
      </trkpt>
      <trkpt lat="49.01716" lon="1.76265">
        <ele>82</ele>
        <time>2023-06-30T14:24:39Z</time>
      </trkpt>
      <trkpt lat="49.01719" lon="1.76173">
        <ele>77</ele>
        <time>2023-06-30T14:25:09Z</time>
      </trkpt>
      <trkpt lat="49.01761" lon="1.76186">
        <ele>79</ele>
        <time>2023-06-30T14:25:31Z</time>
      </trkpt>
      <trkpt lat="49.01789" lon="1.7619">
        <ele>79</ele>
        <time>2023-06-30T14:25:45Z</time>
      </trkpt>
      <trkpt lat="49.01819" lon="1.76189">
        <ele>80</ele>
        <time>2023-06-30T14:26:00Z</time>
      </trkpt>
      <trkpt lat="49.01849" lon="1.76179">
        <ele>80</ele>
        <time>2023-06-30T14:26:15Z</time>
      </trkpt>
      <trkpt lat="49.01882" lon="1.7616">
        <ele>80</ele>
        <time>2023-06-30T14:26:33Z</time>
      </trkpt>
      <trkpt lat="49.01918" lon="1.76132">
        <ele>79</ele>
        <time>2023-06-30T14:26:53Z</time>
      </trkpt>
      <trkpt lat="49.01924" lon="1.7613">
        <ele>79</ele>
        <time>2023-06-30T14:26:56Z</time>
      </trkpt>
      <trkpt lat="49.0193" lon="1.76132">
        <ele>79</ele>
        <time>2023-06-30T14:26:59Z</time>
      </trkpt>
      <trkpt lat="49.01936" lon="1.76136">
        <ele>79</ele>
        <time>2023-06-30T14:27:02Z</time>
      </trkpt>
      <trkpt lat="49.01957" lon="1.76179">
        <ele>79</ele>
        <time>2023-06-30T14:27:20Z</time>
      </trkpt>
      <trkpt lat="49.01962" lon="1.76187">
        <ele>80</ele>
        <time>2023-06-30T14:27:24Z</time>
      </trkpt>
      <trkpt lat="49.01967" lon="1.7619">
        <ele>80</ele>
        <time>2023-06-30T14:27:26Z</time>
      </trkpt>
      <trkpt lat="49.0198" lon="1.76193">
        <ele>80</ele>
        <time>2023-06-30T14:27:33Z</time>
      </trkpt>
      <trkpt lat="49.01987" lon="1.76191">
        <ele>80</ele>
        <time>2023-06-30T14:27:36Z</time>
      </trkpt>
      <trkpt lat="49.02077" lon="1.76088">
        <ele>80</ele>
        <time>2023-06-30T14:28:33Z</time>
      </trkpt>
      <trkpt lat="49.02086" lon="1.76067">
        <ele>80</ele>
        <time>2023-06-30T14:28:41Z</time>
      </trkpt>
      <trkpt lat="49.02135" lon="1.75885">
        <ele>81</ele>
        <time>2023-06-30T14:29:46Z</time>
      </trkpt>
      <trkpt lat="49.02155" lon="1.7584">
        <ele>81</ele>
        <time>2023-06-30T14:30:03Z</time>
      </trkpt>
      <trkpt lat="49.02173" lon="1.75777">
        <ele>82</ele>
        <time>2023-06-30T14:30:26Z</time>
      </trkpt>
      <trkpt lat="49.02192" lon="1.75739">
        <ele>84</ele>
        <time>2023-06-30T14:30:42Z</time>
      </trkpt>
      <trkpt lat="49.02235" lon="1.75642">
        <ele>86</ele>
        <time>2023-06-30T14:31:20Z</time>
      </trkpt>
      <trkpt lat="49.0226" lon="1.75657">
        <ele>88</ele>
        <time>2023-06-30T14:31:33Z</time>
      </trkpt>
      <trkpt lat="49.02325" lon="1.7571">
        <ele>95</ele>
        <time>2023-06-30T14:32:10Z</time>
      </trkpt>
      <trkpt lat="49.02426" lon="1.75773">
        <ele>108</ele>
        <time>2023-06-30T14:33:05Z</time>
      </trkpt>
      <trkpt lat="49.0246" lon="1.75658">
        <ele>109</ele>
        <time>2023-06-30T14:33:46Z</time>
      </trkpt>
      <trkpt lat="49.0247" lon="1.75619">
        <ele>110</ele>
        <time>2023-06-30T14:34:00Z</time>
      </trkpt>
      <trkpt lat="49.02491" lon="1.75531">
        <ele>109</ele>
        <time>2023-06-30T14:34:31Z</time>
      </trkpt>
      <trkpt lat="49.0251" lon="1.75488">
        <ele>109</ele>
        <time>2023-06-30T14:34:48Z</time>
      </trkpt>
      <trkpt lat="49.02497" lon="1.7547">
        <ele>107</ele>
        <time>2023-06-30T14:34:57Z</time>
      </trkpt>
      <trkpt lat="49.02499" lon="1.75458">
        <ele>107</ele>
        <time>2023-06-30T14:35:01Z</time>
      </trkpt>
      <trkpt lat="49.02498" lon="1.75443">
        <ele>106</ele>
        <time>2023-06-30T14:35:06Z</time>
      </trkpt>
      <trkpt lat="49.02504" lon="1.75446">
        <ele>107</ele>
        <time>2023-06-30T14:35:09Z</time>
      </trkpt>
      <trkpt lat="49.02498" lon="1.75443">
        <ele>106</ele>
        <time>2023-06-30T14:35:12Z</time>
      </trkpt>
      <trkpt lat="49.02499" lon="1.75458">
        <ele>107</ele>
        <time>2023-06-30T14:35:17Z</time>
      </trkpt>
      <trkpt lat="49.02497" lon="1.7547">
        <ele>107</ele>
        <time>2023-06-30T14:35:21Z</time>
      </trkpt>
      <trkpt lat="49.0251" lon="1.75488">
        <ele>109</ele>
        <time>2023-06-30T14:35:30Z</time>
      </trkpt>
      <trkpt lat="49.02491" lon="1.75531">
        <ele>109</ele>
        <time>2023-06-30T14:35:47Z</time>
      </trkpt>
      <trkpt lat="49.0247" lon="1.75619">
        <ele>110</ele>
        <time>2023-06-30T14:36:18Z</time>
      </trkpt>
      <trkpt lat="49.0246" lon="1.75658">
        <ele>109</ele>
        <time>2023-06-30T14:36:31Z</time>
      </trkpt>
      <trkpt lat="49.02426" lon="1.75773">
        <ele>108</ele>
        <time>2023-06-30T14:37:13Z</time>
      </trkpt>
      <trkpt lat="49.02379" lon="1.75919">
        <ele>99</ele>
        <time>2023-06-30T14:38:06Z</time>
      </trkpt>
      <trkpt lat="49.02369" lon="1.75945">
        <ele>98</ele>
        <time>2023-06-30T14:38:16Z</time>
      </trkpt>
      <trkpt lat="49.02397" lon="1.75989">
        <ele>101</ele>
        <time>2023-06-30T14:38:36Z</time>
      </trkpt>
      <trkpt lat="49.02401" lon="1.76003">
        <ele>101</ele>
        <time>2023-06-30T14:38:41Z</time>
      </trkpt>
      <trkpt lat="49.02401" lon="1.76016">
        <ele>101</ele>
        <time>2023-06-30T14:38:45Z</time>
      </trkpt>
      <trkpt lat="49.02384" lon="1.76071">
        <ele>100</ele>
        <time>2023-06-30T14:39:05Z</time>
      </trkpt>
      <trkpt lat="49.02359" lon="1.76127">
        <ele>99</ele>
        <time>2023-06-30T14:39:28Z</time>
      </trkpt>
      <trkpt lat="49.02348" lon="1.7616">
        <ele>98</ele>
        <time>2023-06-30T14:39:40Z</time>
      </trkpt>
      <trkpt lat="49.02345" lon="1.7619">
        <ele>97</ele>
        <time>2023-06-30T14:39:50Z</time>
      </trkpt>
      <trkpt lat="49.02346" lon="1.76211">
        <ele>97</ele>
        <time>2023-06-30T14:39:57Z</time>
      </trkpt>
      <trkpt lat="49.02353" lon="1.76237">
        <ele>97</ele>
        <time>2023-06-30T14:40:06Z</time>
      </trkpt>
      <trkpt lat="49.02375" lon="1.76271">
        <ele>98</ele>
        <time>2023-06-30T14:40:21Z</time>
      </trkpt>
      <trkpt lat="49.0238" lon="1.76333">
        <ele>97</ele>
        <time>2023-06-30T14:40:42Z</time>
      </trkpt>
      <trkpt lat="49.02388" lon="1.76359">
        <ele>97</ele>
        <time>2023-06-30T14:40:51Z</time>
      </trkpt>
      <trkpt lat="49.02441" lon="1.76445">
        <ele>102</ele>
        <time>2023-06-30T14:41:30Z</time>
      </trkpt>
      <trkpt lat="49.0249" lon="1.76545">
        <ele>103</ele>
        <time>2023-06-30T14:42:11Z</time>
      </trkpt>
      <trkpt lat="49.02504" lon="1.76585">
        <ele>102</ele>
        <time>2023-06-30T14:42:26Z</time>
      </trkpt>
      <trkpt lat="49.02524" lon="1.76699">
        <ele>102</ele>
        <time>2023-06-30T14:43:05Z</time>
      </trkpt>
      <trkpt lat="49.02573" lon="1.76911">
        <ele>105</ele>
        <time>2023-06-30T14:44:18Z</time>
      </trkpt>
      <trkpt lat="49.02584" lon="1.77009">
        <ele>110</ele>
        <time>2023-06-30T14:44:51Z</time>
      </trkpt>
      <trkpt lat="49.02603" lon="1.77084">
        <ele>115</ele>
        <time>2023-06-30T14:45:17Z</time>
      </trkpt>
      <trkpt lat="49.02619" lon="1.77192">
        <ele>117</ele>
        <time>2023-06-30T14:45:54Z</time>
      </trkpt>
      <trkpt lat="49.02668" lon="1.77284">
        <ele>119</ele>
        <time>2023-06-30T14:46:33Z</time>
      </trkpt>
      <trkpt lat="49.02726" lon="1.77421">
        <ele>125</ele>
        <time>2023-06-30T14:47:26Z</time>
      </trkpt>
      <trkpt lat="49.02707" lon="1.77426">
        <ele>125</ele>
        <time>2023-06-30T14:47:36Z</time>
      </trkpt>
      <trkpt lat="49.02632" lon="1.77483">
        <ele>129</ele>
        <time>2023-06-30T14:48:18Z</time>
      </trkpt>
      <trkpt lat="49.02522" lon="1.77547">
        <ele>133</ele>
        <time>2023-06-30T14:49:17Z</time>
      </trkpt>
      <trkpt lat="49.02433" lon="1.77604">
        <ele>137</ele>
        <time>2023-06-30T14:50:05Z</time>
      </trkpt>
      <trkpt lat="49.02422" lon="1.77608">
        <ele>137</ele>
        <time>2023-06-30T14:50:11Z</time>
      </trkpt>
      <trkpt lat="49.0247" lon="1.77741">
        <ele>145</ele>
        <time>2023-06-30T14:51:00Z</time>
      </trkpt>
      <trkpt lat="49.02466" lon="1.77821">
        <ele>152</ele>
        <time>2023-06-30T14:51:27Z</time>
      </trkpt>
      <trkpt lat="49.02455" lon="1.77969">
        <ele>159</ele>
        <time>2023-06-30T14:52:16Z</time>
      </trkpt>
      <trkpt lat="49.02455" lon="1.77999">
        <ele>160</ele>
        <time>2023-06-30T14:52:25Z</time>
      </trkpt>
      <trkpt lat="49.02455" lon="1.78009">
        <ele>160</ele>
        <time>2023-06-30T14:52:29Z</time>
      </trkpt>
      <trkpt lat="49.02376" lon="1.77961">
        <ele>155</ele>
        <time>2023-06-30T14:53:11Z</time>
      </trkpt>
      <trkpt lat="49.02319" lon="1.7791">
        <ele>151</ele>
        <time>2023-06-30T14:53:44Z</time>
      </trkpt>
      <trkpt lat="49.02376" lon="1.77961">
        <ele>155</ele>
        <time>2023-06-30T14:54:17Z</time>
      </trkpt>
      <trkpt lat="49.02456" lon="1.78009">
        <ele>161</ele>
        <time>2023-06-30T14:55:00Z</time>
      </trkpt>
      <trkpt lat="49.02484" lon="1.78245">
        <ele>171</ele>
        <time>2023-06-30T14:56:19Z</time>
      </trkpt>
      <trkpt lat="49.0245" lon="1.78386">
        <ele>181</ele>
        <time>2023-06-30T14:57:08Z</time>
      </trkpt>
      <trkpt lat="49.02397" lon="1.78499">
        <ele>187</ele>
        <time>2023-06-30T14:57:54Z</time>
      </trkpt>
      <trkpt lat="49.02396" lon="1.78521">
        <ele>188</ele>
        <time>2023-06-30T14:58:01Z</time>
      </trkpt>
      <trkpt lat="49.02364" lon="1.78677">
        <ele>191</ele>
        <time>2023-06-30T14:58:55Z</time>
      </trkpt>
      <trkpt lat="49.0236" lon="1.78728">
        <ele>191</ele>
        <time>2023-06-30T14:59:12Z</time>
      </trkpt>
      <trkpt lat="49.02361" lon="1.79027">
        <ele>190</ele>
        <time>2023-06-30T15:00:50Z</time>
      </trkpt>
      <trkpt lat="49.0235" lon="1.79148">
        <ele>189</ele>
        <time>2023-06-30T15:01:30Z</time>
      </trkpt>
      <trkpt lat="49.02344" lon="1.79336">
        <ele>187</ele>
        <time>2023-06-30T15:02:32Z</time>
      </trkpt>
      <trkpt lat="49.02334" lon="1.79568">
        <ele>179</ele>
        <time>2023-06-30T15:03:48Z</time>
      </trkpt>
      <trkpt lat="49.02284" lon="1.79653">
        <ele>173</ele>
        <time>2023-06-30T15:04:26Z</time>
      </trkpt>
      <trkpt lat="49.02098" lon="1.79821">
        <ele>168</ele>
        <time>2023-06-30T15:06:14Z</time>
      </trkpt>
      <trkpt lat="49.01963" lon="1.79961">
        <ele>174</ele>
        <time>2023-06-30T15:07:35Z</time>
      </trkpt>
      <trkpt lat="49.01806" lon="1.80089">
        <ele>182</ele>
        <time>2023-06-30T15:09:04Z</time>
      </trkpt>
      <trkpt lat="49.0176" lon="1.80129">
        <ele>185</ele>
        <time>2023-06-30T15:09:31Z</time>
      </trkpt>
      <trkpt lat="49.01695" lon="1.80209">
        <ele>188</ele>
        <time>2023-06-30T15:10:13Z</time>
      </trkpt>
      <trkpt lat="49.01637" lon="1.8032">
        <ele>187</ele>
        <time>2023-06-30T15:10:59Z</time>
      </trkpt>
      <trkpt lat="49.01614" lon="1.8035">
        <ele>188</ele>
        <time>2023-06-30T15:11:15Z</time>
      </trkpt>
      <trkpt lat="49.01585" lon="1.80384">
        <ele>189</ele>
        <time>2023-06-30T15:11:33Z</time>
      </trkpt>
      <trkpt lat="49.01547" lon="1.80439">
        <ele>188</ele>
        <time>2023-06-30T15:11:59Z</time>
      </trkpt>
      <trkpt lat="49.01522" lon="1.80505">
        <ele>188</ele>
        <time>2023-06-30T15:12:24Z</time>
      </trkpt>
      <trkpt lat="49.01505" lon="1.80545">
        <ele>192</ele>
        <time>2023-06-30T15:12:40Z</time>
      </trkpt>
      <trkpt lat="49.01467" lon="1.80608">
        <ele>195</ele>
        <time>2023-06-30T15:13:08Z</time>
      </trkpt>
      <trkpt lat="49.01426" lon="1.80691">
        <ele>195</ele>
        <time>2023-06-30T15:13:42Z</time>
      </trkpt>
      <trkpt lat="49.0136" lon="1.8087">
        <ele>193</ele>
        <time>2023-06-30T15:14:49Z</time>
      </trkpt>
      <trkpt lat="49.01257" lon="1.81437">
        <ele>192</ele>
        <time>2023-06-30T15:18:02Z</time>
      </trkpt>
      <trkpt lat="49.01227" lon="1.81629">
        <ele>194</ele>
        <time>2023-06-30T15:19:07Z</time>
      </trkpt>
      <trkpt lat="49.01235" lon="1.81638">
        <ele>194</ele>
        <time>2023-06-30T15:19:12Z</time>
      </trkpt>
      <trkpt lat="49.01235" lon="1.81649">
        <ele>194</ele>
        <time>2023-06-30T15:19:16Z</time>
      </trkpt>
      <trkpt lat="49.01235" lon="1.81638">
        <ele>194</ele>
        <time>2023-06-30T15:19:19Z</time>
      </trkpt>
      <trkpt lat="49.01226" lon="1.81627">
        <ele>194</ele>
        <time>2023-06-30T15:19:25Z</time>
      </trkpt>
      <trkpt lat="49.01194" lon="1.81648">
        <ele>194</ele>
        <time>2023-06-30T15:19:43Z</time>
      </trkpt>
      <trkpt lat="49.01174" lon="1.8165">
        <ele>194</ele>
        <time>2023-06-30T15:19:53Z</time>
      </trkpt>
      <trkpt lat="49.01118" lon="1.81687">
        <ele>195</ele>
        <time>2023-06-30T15:20:23Z</time>
      </trkpt>
      <trkpt lat="49.01085" lon="1.81702">
        <ele>194</ele>
        <time>2023-06-30T15:20:40Z</time>
      </trkpt>
      <trkpt lat="49.00824" lon="1.81677">
        <ele>172</ele>
        <time>2023-06-30T15:22:51Z</time>
      </trkpt>
      <trkpt lat="49.0071" lon="1.81857">
        <ele>163</ele>
        <time>2023-06-30T15:24:13Z</time>
      </trkpt>
      <trkpt lat="49.00683" lon="1.81849">
        <ele>161</ele>
        <time>2023-06-30T15:24:27Z</time>
      </trkpt>
      <trkpt lat="49.00571" lon="1.81831">
        <ele>154</ele>
        <time>2023-06-30T15:25:24Z</time>
      </trkpt>
      <trkpt lat="49.00515" lon="1.81825">
        <ele>147</ele>
        <time>2023-06-30T15:25:52Z</time>
      </trkpt>
      <trkpt lat="49.00452" lon="1.81826">
        <ele>139</ele>
        <time>2023-06-30T15:26:23Z</time>
      </trkpt>
      <trkpt lat="49.00429" lon="1.81817">
        <ele>136</ele>
        <time>2023-06-30T15:26:35Z</time>
      </trkpt>
      <trkpt lat="49.00373" lon="1.81784">
        <ele>132</ele>
        <time>2023-06-30T15:27:05Z</time>
      </trkpt>
      <trkpt lat="49.00293" lon="1.8174">
        <ele>127</ele>
        <time>2023-06-30T15:27:48Z</time>
      </trkpt>
      <trkpt lat="49.00233" lon="1.81712">
        <ele>125</ele>
        <time>2023-06-30T15:28:19Z</time>
      </trkpt>
      <trkpt lat="49.00155" lon="1.81679">
        <ele>123</ele>
        <time>2023-06-30T15:29:00Z</time>
      </trkpt>
      <trkpt lat="49.00151" lon="1.81687">
        <ele>123</ele>
        <time>2023-06-30T15:29:03Z</time>
      </trkpt>
      <trkpt lat="49.00155" lon="1.81679">
        <ele>123</ele>
        <time>2023-06-30T15:29:06Z</time>
      </trkpt>
      <trkpt lat="49.00098" lon="1.81633">
        <ele>122</ele>
        <time>2023-06-30T15:29:38Z</time>
      </trkpt>
      <trkpt lat="49.00042" lon="1.81582">
        <ele>121</ele>
        <time>2023-06-30T15:30:11Z</time>
      </trkpt>
      <trkpt lat="48.99828" lon="1.81351">
        <ele>111</ele>
        <time>2023-06-30T15:32:22Z</time>
      </trkpt>
      <trkpt lat="48.99855" lon="1.81163">
        <ele>106</ele>
        <time>2023-06-30T15:33:25Z</time>
      </trkpt>
      <trkpt lat="48.99903" lon="1.81166">
        <ele>106</ele>
        <time>2023-06-30T15:33:50Z</time>
      </trkpt>
      <trkpt lat="48.99911" lon="1.81106">
        <ele>104</ele>
        <time>2023-06-30T15:34:10Z</time>
      </trkpt>
      <trkpt lat="48.99984" lon="1.81125">
        <ele>106</ele>
        <time>2023-06-30T15:34:47Z</time>
      </trkpt>
      <trkpt lat="49.00008" lon="1.80896">
        <ele>112</ele>
        <time>2023-06-30T15:36:03Z</time>
      </trkpt>
      <trkpt lat="49.00025" lon="1.80759">
        <ele>116</ele>
        <time>2023-06-30T15:36:49Z</time>
      </trkpt>
      <trkpt lat="49.00046" lon="1.80096">
        <ele>119</ele>
        <time>2023-06-30T15:40:27Z</time>
      </trkpt>
      <trkpt lat="49.00046" lon="1.80067">
        <ele>119</ele>
        <time>2023-06-30T15:40:36Z</time>
      </trkpt>
      <trkpt lat="48.99945" lon="1.7998">
        <ele>118</ele>
        <time>2023-06-30T15:41:34Z</time>
      </trkpt>
      <trkpt lat="48.99548" lon="1.79456">
        <ele>113</ele>
        <time>2023-06-30T15:45:57Z</time>
      </trkpt>
      <trkpt lat="48.99543" lon="1.79453">
        <ele>113</ele>
        <time>2023-06-30T15:46:00Z</time>
      </trkpt>
      <trkpt lat="48.99529" lon="1.79431">
        <ele>113</ele>
        <time>2023-06-30T15:46:10Z</time>
      </trkpt>
      <trkpt lat="48.99451" lon="1.79426">
        <ele>109</ele>
        <time>2023-06-30T15:46:49Z</time>
      </trkpt>
      <trkpt lat="48.9935" lon="1.79412">
        <ele>107</ele>
        <time>2023-06-30T15:47:39Z</time>
      </trkpt>
      <trkpt lat="48.99294" lon="1.79432">
        <ele>102</ele>
        <time>2023-06-30T15:48:08Z</time>
      </trkpt>
      <trkpt lat="48.99275" lon="1.79441">
        <ele>99</ele>
        <time>2023-06-30T15:48:18Z</time>
      </trkpt>
      <trkpt lat="48.99125" lon="1.79482">
        <ele>81</ele>
        <time>2023-06-30T15:49:34Z</time>
      </trkpt>
      <trkpt lat="48.9909" lon="1.79481">
        <ele>78</ele>
        <time>2023-06-30T15:49:52Z</time>
      </trkpt>
      <trkpt lat="48.99024" lon="1.79442">
        <ele>76</ele>
        <time>2023-06-30T15:50:27Z</time>
      </trkpt>
      <trkpt lat="48.99014" lon="1.79433">
        <ele>76</ele>
        <time>2023-06-30T15:50:33Z</time>
      </trkpt>
      <trkpt lat="48.98989" lon="1.79371">
        <ele>77</ele>
        <time>2023-06-30T15:50:57Z</time>
      </trkpt>
      <trkpt lat="48.9898" lon="1.79338">
        <ele>78</ele>
        <time>2023-06-30T15:51:09Z</time>
      </trkpt>
      <trkpt lat="48.98959" lon="1.79329">
        <ele>78</ele>
        <time>2023-06-30T15:51:20Z</time>
      </trkpt>
      <trkpt lat="48.9893" lon="1.79311">
        <ele>77</ele>
        <time>2023-06-30T15:51:35Z</time>
      </trkpt>
      <trkpt lat="48.98889" lon="1.79301">
        <ele>76</ele>
        <time>2023-06-30T15:51:56Z</time>
      </trkpt>
      <trkpt lat="48.98875" lon="1.79335">
        <ele>76</ele>
        <time>2023-06-30T15:52:09Z</time>
      </trkpt>
      <trkpt lat="48.98863" lon="1.79342">
        <ele>75</ele>
        <time>2023-06-30T15:52:16Z</time>
      </trkpt>
      <trkpt lat="48.9885" lon="1.79346">
        <ele>75</ele>
        <time>2023-06-30T15:52:22Z</time>
      </trkpt>
      <trkpt lat="48.9878" lon="1.79347">
        <ele>72</ele>
        <time>2023-06-30T15:52:57Z</time>
      </trkpt>
      <trkpt lat="48.9878" lon="1.79427">
        <ele>72</ele>
        <time>2023-06-30T15:53:24Z</time>
      </trkpt>
      <trkpt lat="48.98669" lon="1.79434">
        <ele>66</ele>
        <time>2023-06-30T15:54:19Z</time>
      </trkpt>
      <trkpt lat="48.98519" lon="1.79447">
        <ele>60</ele>
        <time>2023-06-30T15:55:35Z</time>
      </trkpt>
    </trkseg>
  </trk>
</gpx>